Time;durP1;ratioP1;P1;durP2;ratioP2;P2;SDS_P1;SDS_P2;PMS_P1;PMS_P2;Temp;Humidity;BMP_temperature;BMP_pressure;BME280_temperature;BME280_humidity;BME280_pressure;Samples;Min_cycle;Max_cycle;Signal;HPM_P1;HPM_P2
2021/12/18 00:01:54;;;;;;;;;27.00;23.50;;;;;10.11;63.71;103190.34;5080209;28;45407;-64
2021/12/18 00:04:19;;;;;;;;;28.00;25.00;;;;;10.06;63.71;103186.75;5080051;28;45336;-64
2021/12/18 00:06:45;;;;;;;;;24.25;23.25;;;;;10.01;63.29;103179.56;5080052;28;45392;-64
2021/12/18 00:09:10;;;;;;;;;27.75;24.50;;;;;9.99;63.69;103172.44;5079648;28;45399;-64
2021/12/18 00:11:36;;;;;;;;;23.25;18.75;;;;;9.97;63.53;103180.44;5079672;28;45292;-64
2021/12/18 00:14:01;;;;;;;;;24.50;17.00;;;;;9.99;63.80;103184.00;5078900;28;45516;-64
2021/12/18 00:16:27;;;;;;;;;22.25;20.25;;;;;9.97;63.37;103172.44;5077308;28;46022;-64
2021/12/18 00:18:54;;;;;;;;;23.25;18.00;;;;;9.96;63.42;103181.31;5079300;28;45317;-64
2021/12/18 00:21:21;;;;;;;;;22.50;22.50;;;;;9.98;63.34;103176.88;5079814;28;45243;-64
2021/12/18 00:23:46;;;;;;;;;26.50;22.00;;;;;9.99;63.86;103165.34;5079560;28;45556;-64
2021/12/18 00:26:11;;;;;;;;;22.75;21.00;;;;;10.01;63.44;103170.69;5079432;28;46176;-64
2021/12/18 00:28:37;;;;;;;;;23.50;19.50;;;;;10.02;63.81;103172.44;5079434;28;47474;-64
2021/12/18 00:31:03;;;;;;;;;19.50;19.25;;;;;10.01;63.52;103163.56;5079897;28;45315;-64
2021/12/18 00:33:28;;;;;;;;;20.50;18.00;;;;;9.94;63.79;103155.47;5079523;28;45351;-64
2021/12/18 00:35:53;;;;;;;;;25.25;21.00;;;;;10.00;63.44;103174.22;5079579;28;45373;-64
2021/12/18 00:38:19;;;;;;;;;21.50;21.50;;;;;9.99;63.20;103169.78;5063825;28;45382;-64
2021/12/18 00:40:59;;;;;;;;;28.25;24.25;;;;;9.98;62.77;103179.53;5082914;28;45256;-64
2021/12/18 00:43:29;;;;;;;;;22.00;21.25;;;;;9.96;63.08;103172.41;5079673;28;45348;-64
2021/12/18 00:45:55;;;;;;;;;18.75;16.25;;;;;9.96;63.28;103167.09;5077857;28;46337;-64
2021/12/18 00:48:21;;;;;;;;;22.50;19.75;;;;;9.92;63.36;103160.84;5082930;27;45256;-64
2021/12/18 00:50:47;;;;;;;;;20.75;19.25;;;;;9.89;62.91;103152.78;5074859;27;45572;-64
2021/12/18 00:53:12;;;;;;;;;22.75;22.00;;;;;9.83;63.27;103158.06;5077201;27;45721;-64
2021/12/18 00:55:38;;;;;;;;;18.50;16.00;;;;;9.83;63.05;103144.72;5082150;28;45169;-64
2021/12/18 00:58:04;;;;;;;;;19.25;18.25;;;;;9.84;63.14;103151.84;5080941;27;45294;-64
2021/12/18 01:00:30;;;;;;;;;21.50;20.75;;;;;9.79;63.19;103148.25;5082735;28;45510;-64
2021/12/18 01:03:00;;;;;;;;;22.50;21.25;;;;;9.77;63.63;103155.31;5082513;27;45303;-64
2021/12/18 01:05:27;;;;;;;;;19.00;19.00;;;;;9.80;63.00;103153.56;5082893;27;46124;-64
2021/12/18 01:07:57;;;;;;;;;18.50;18.00;;;;;9.78;63.49;103154.47;5082837;28;45389;-64
2021/12/18 01:13:13;;;;;;;;;21.25;18.00;;;;;9.81;63.22;103146.50;5082444;28;45535;-64
2021/12/18 01:15:45;;;;;;;;;22.25;21.00;;;;;9.76;63.11;103156.22;5080797;27;46309;-64
2021/12/18 01:23:39;;;;;;;;;20.25;18.75;;;;;9.72;63.04;103162.41;5082526;27;45318;-64
2021/12/18 01:26:04;;;;;;;;;22.50;21.50;;;;;9.72;63.30;103170.41;5082128;27;45691;-64
2021/12/18 01:28:31;;;;;;;;;18.25;18.25;;;;;9.71;63.13;103166.84;5082224;28;45546;-64
2021/12/18 01:30:56;;;;;;;;;22.25;20.50;;;;;9.67;62.74;103165.00;5082624;28;45425;-64
2021/12/18 01:33:22;;;;;;;;;26.25;22.75;;;;;9.65;62.98;103158.78;5080429;27;45362;-64
2021/12/18 01:35:48;;;;;;;;;23.25;21.75;;;;;9.62;63.22;103156.06;5082338;28;45548;-64
2021/12/18 01:38:14;;;;;;;;;16.50;16.25;;;;;9.59;63.09;103166.72;5082047;28;45297;-64
2021/12/18 01:40:39;;;;;;;;;24.75;20.75;;;;;9.62;62.93;103174.72;5081690;28;45263;-64
2021/12/18 01:54:04;;;;;;;;;23.25;19.75;;;;;9.51;63.16;103179.09;5081834;28;45405;-64
2021/12/18 01:56:29;;;;;;;;;19.50;19.50;;;;;9.48;63.03;103177.25;5059972;28;46958;-64
2021/12/18 01:58:55;;;;;;;;;20.25;19.25;;;;;9.50;63.37;103167.50;5075891;27;45260;-64
2021/12/18 02:01:21;;;;;;;;;16.50;16.25;;;;;9.50;62.94;103172.84;5084893;27;45429;-64
2021/12/18 02:03:47;;;;;;;;;21.50;20.50;;;;;9.47;62.67;103172.78;5081951;27;45173;-64
2021/12/18 02:06:13;;;;;;;;;25.25;17.50;;;;;9.40;63.09;103169.16;5081846;28;45381;-64
2021/12/18 02:08:39;;;;;;;;;22.75;21.75;;;;;9.43;63.33;103168.31;5081745;27;45546;-64
2021/12/18 02:11:13;;;;;;;;;21.50;20.00;;;;;9.41;63.08;103167.41;5081503;28;45362;-64
2021/12/18 02:21:41;;;;;;;;;22.50;20.50;;;;;9.46;63.03;103179.03;5077073;27;45446;-64
2021/12/18 02:24:07;;;;;;;;;21.00;20.00;;;;;9.46;62.71;103169.25;5081306;28;45315;-64
2021/12/18 02:26:33;;;;;;;;;19.00;18.25;;;;;9.45;62.60;103163.88;5081181;28;46048;-64
2021/12/18 02:29:02;;;;;;;;;28.75;23.25;;;;;9.50;62.60;103172.84;5081358;28;45319;-65
2021/12/18 02:31:27;;;;;;;;;19.75;17.25;;;;;9.41;62.72;103172.75;5081615;28;45450;-64
2021/12/18 02:33:53;;;;;;;;;22.25;21.00;;;;;9.36;62.71;103164.69;5079691;27;45573;-64
2021/12/18 02:36:25;;;;;;;;;24.50;21.00;;;;;9.39;62.85;103172.72;5081161;27;45504;-64
2021/12/18 02:43:54;;;;;;;;;22.00;20.75;;;;;9.41;62.80;103170.97;5074028;28;45312;-64
2021/12/18 02:46:20;;;;;;;;;19.25;17.25;;;;;9.39;62.52;103167.41;5079838;28;45251;-64
2021/12/18 02:48:48;;;;;;;;;21.25;18.50;;;;;9.38;62.64;103164.72;5081181;27;45698;-64
2021/12/18 02:51:14;;;;;;;;;22.25;21.50;;;;;9.38;63.05;103160.25;5079378;27;46122;-64
2021/12/18 02:53:46;;;;;;;;;27.75;23.25;;;;;9.41;62.94;103170.97;5080883;27;45477;-64
2021/12/18 02:56:12;;;;;;;;;24.00;22.25;;;;;9.33;62.23;103169.09;5080458;28;46292;-64
2021/12/18 02:58:40;;;;;;;;;22.50;19.00;;;;;9.27;62.47;103167.22;5080588;28;45299;-64
2021/12/18 03:01:08;;;;;;;;;22.25;22.25;;;;;9.18;62.62;103173.34;5079620;27;45334;-64
2021/12/18 03:03:37;;;;;;;;;23.25;22.50;;;;;9.09;62.92;103168.81;5080891;27;45326;-64
2021/12/18 03:25:01;;;;;;;;;30.50;25.75;;;;;8.84;63.24;103172.03;5078702;27;45343;-63
2021/12/18 03:27:27;;;;;;;;;29.75;26.75;;;;;8.68;63.17;103163.81;5080305;28;46882;-63
2021/12/18 03:29:53;;;;;;;;;37.25;32.25;;;;;8.70;63.36;103174.50;5080668;28;45589;-63
2021/12/18 03:32:19;;;;;;;;;25.00;20.50;;;;;8.65;63.32;103173.53;5080616;28;45204;-63
2021/12/18 03:34:45;;;;;;;;;25.00;24.75;;;;;8.57;63.33;103169.84;5080529;27;45351;-63
2021/12/18 03:37:11;;;;;;;;;35.50;29.00;;;;;8.55;63.53;103164.50;5080588;28;45372;-63
2021/12/18 03:39:36;;;;;;;;;30.00;25.75;;;;;8.55;63.73;103167.16;5080090;28;45218;-63
2021/12/18 03:42:04;;;;;;;;;32.75;23.00;;;;;8.56;63.74;103174.28;5078565;27;45485;-63
2021/12/18 03:44:30;;;;;;;;;24.75;23.50;;;;;8.47;64.01;103172.41;5080033;27;45252;-63
2021/12/18 03:46:55;;;;;;;;;31.00;29.00;;;;;8.38;63.74;103168.66;5080214;28;45719;-63
2021/12/18 03:49:21;;;;;;;;;19.75;18.00;;;;;8.38;64.16;103158.00;5079979;28;45433;-63
2021/12/18 03:51:46;;;;;;;;;26.75;23.50;;;;;8.34;64.23;103151.75;5079959;28;45421;-63
2021/12/18 03:54:11;;;;;;;;;30.50;25.25;;;;;8.31;64.55;103152.59;5079576;27;45599;-63
2021/12/18 03:56:37;;;;;;;;;32.25;30.25;;;;;8.35;64.67;103162.44;5079807;28;46233;-63
2021/12/18 03:59:02;;;;;;;;;29.25;24.75;;;;;8.35;64.52;103153.53;5078236;27;45391;-63
2021/12/18 04:01:27;;;;;;;;;30.25;27.25;;;;;8.32;64.59;103138.41;5080188;28;45809;-63
2021/12/18 04:03:53;;;;;;;;;31.75;29.25;;;;;8.37;64.67;103154.47;5079850;27;45518;-63
2021/12/18 04:06:19;;;;;;;;;37.00;31.25;;;;;8.35;64.54;103164.16;5079911;28;46474;-63
2021/12/18 04:08:45;;;;;;;;;24.50;21.00;;;;;8.33;64.91;103150.84;5079903;28;45177;-63
2021/12/18 04:11:11;;;;;;;;;36.50;28.75;;;;;8.31;64.79;103160.56;5079644;28;45292;-63
2021/12/18 04:13:37;;;;;;;;;26.00;23.00;;;;;8.30;65.24;103163.19;5079412;27;46052;-63
2021/12/18 04:16:02;;;;;;;;;34.00;29.00;;;;;8.24;65.05;103145.38;5074563;27;46733;-63
2021/12/18 04:18:28;;;;;;;;;26.50;26.00;;;;;8.16;65.03;103147.03;5079712;27;45300;-63
2021/12/18 04:20:53;;;;;;;;;30.00;28.00;;;;;8.15;65.57;103156.78;5079766;28;45883;-63
2021/12/18 04:23:18;;;;;;;;;30.25;23.25;;;;;8.10;65.74;103150.50;5077871;27;45279;-63
2021/12/18 04:25:44;;;;;;;;;32.25;27.00;;;;;8.08;65.77;103149.56;5078957;28;46196;-63
2021/12/18 04:28:10;;;;;;;;;31.00;27.00;;;;;8.14;65.45;103156.75;5079696;28;45500;-63
2021/12/18 04:30:35;;;;;;;;;25.75;25.75;;;;;8.09;65.84;103153.13;5079906;28;45469;-63
2021/12/18 04:33:02;;;;;;;;;34.00;30.00;;;;;8.05;65.93;103157.50;5079772;28;45301;-63
2021/12/18 04:35:30;;;;;;;;;24.75;22.75;;;;;8.04;65.97;103153.03;5079677;27;46216;-63
2021/12/18 04:37:56;;;;;;;;;30.00;28.00;;;;;8.05;66.01;103157.50;5077876;27;45271;-63
2021/12/18 04:40:25;;;;;;;;;28.00;23.25;;;;;8.03;66.17;103163.66;5079167;28;45375;-63
2021/12/18 04:42:52;;;;;;;;;35.50;29.25;;;;;8.08;66.14;103159.31;5079379;28;45485;-63
2021/12/18 04:45:17;;;;;;;;;30.25;26.50;;;;;8.09;66.20;103162.00;5074089;28;46572;-63
2021/12/18 04:47:42;;;;;;;;;29.25;26.75;;;;;8.10;66.23;103163.78;5079255;27;45318;-63
2021/12/18 04:50:08;;;;;;;;;29.75;26.25;;;;;8.09;66.68;103166.44;5079634;28;45236;-63
2021/12/18 04:52:34;;;;;;;;;33.50;28.50;;;;;8.11;66.35;103170.00;5078567;27;45264;-63
2021/12/18 04:55:00;;;;;;;;;23.00;19.50;;;;;8.07;66.36;103171.72;5077290;27;46626;-63
2021/12/18 04:57:25;;;;;;;;;29.75;28.00;;;;;8.10;66.90;103176.19;5079107;27;45394;-63
2021/12/18 04:59:51;;;;;;;;;24.00;24.00;;;;;8.18;66.63;103163.03;5079483;28;45507;-63
2021/12/18 05:02:20;;;;;;;;;32.00;27.50;;;;;8.24;66.68;103165.78;5078994;27;45465;-63
2021/12/18 05:04:45;;;;;;;;;32.25;28.50;;;;;8.30;66.33;103164.13;5079245;28;45452;-63
2021/12/18 05:07:11;;;;;;;;;33.50;28.50;;;;;8.30;66.24;103171.19;5079204;28;45321;-63
2021/12/18 05:09:40;;;;;;;;;27.75;24.75;;;;;8.30;66.76;103179.16;5077599;27;45355;-63
2021/12/18 05:12:07;;;;;;;;;27.75;22.00;;;;;8.29;66.76;103175.63;5075577;28;45432;-63
2021/12/18 05:14:32;;;;;;;;;21.50;20.25;;;;;8.31;66.39;103173.88;5075576;28;46700;-63
2021/12/18 05:16:58;;;;;;;;;35.50;31.75;;;;;8.26;66.54;103164.94;5079180;28;45433;-63
2021/12/18 05:19:23;;;;;;;;;27.25;24.50;;;;;8.31;66.39;103176.53;5079438;28;45291;-63
2021/12/18 05:21:49;;;;;;;;;27.00;21.50;;;;;8.28;66.32;103173.81;5078599;27;45400;-63
2021/12/18 05:24:14;;;;;;;;;22.25;21.25;;;;;8.28;65.97;103178.25;5079586;28;46857;-63
2021/12/18 05:26:40;;;;;;;;;31.75;27.25;;;;;8.31;66.58;103179.19;5080631;27;45400;-63
2021/12/18 05:29:05;;;;;;;;;31.50;29.75;;;;;8.32;66.39;103174.78;5082216;27;45326;-63
2021/12/18 05:31:30;;;;;;;;;29.00;23.75;;;;;8.36;66.63;103171.28;5082557;28;45453;-63
2021/12/18 05:33:59;;;;;;;;;32.50;27.25;;;;;8.40;66.46;103177.56;5081778;28;49788;-63
2021/12/18 05:37:12;;;;;;;;;28.25;25.00;;;;;8.38;66.21;103181.97;5082310;27;45739;-63
2021/12/18 05:39:28;;;;;;;;;25.50;24.00;;;;;8.34;66.49;103176.59;5081777;27;45535;-63
2021/12/18 05:41:55;;;;;;;;;29.75;28.50;;;;;8.32;66.19;103177.47;5082111;28;45331;-63
2021/12/18 05:44:24;;;;;;;;;31.25;28.25;;;;;8.25;66.51;103171.13;5080308;27;48807;-63
2021/12/18 05:46:51;;;;;;;;;28.00;26.00;;;;;8.18;66.54;103165.69;5082016;27;45409;-63
2021/12/18 05:49:17;;;;;;;;;22.50;20.75;;;;;8.18;66.90;103165.69;5081969;27;45479;-63
2021/12/18 05:51:45;;;;;;;;;28.75;26.75;;;;;8.21;66.55;103173.72;5082034;27;45316;-63
2021/12/18 05:54:12;;;;;;;;;33.25;29.25;;;;;8.19;66.60;103178.13;5081500;28;46387;-63
2021/12/18 05:56:38;;;;;;;;;31.50;29.50;;;;;8.19;66.69;103175.47;5081776;28;45276;-63
2021/12/18 05:59:04;;;;;;;;;28.75;26.25;;;;;8.14;66.68;103176.25;5082022;27;45404;-63
2021/12/18 06:01:30;;;;;;;;;27.75;24.00;;;;;8.17;66.79;103164.78;5080182;27;45367;-63
2021/12/18 06:03:56;;;;;;;;;20.75;20.75;;;;;8.23;66.67;103166.66;5081736;28;45286;-63
2021/12/18 06:06:22;;;;;;;;;26.00;23.75;;;;;8.26;66.72;103161.38;5081713;28;45322;-63
2021/12/18 06:08:48;;;;;;;;;32.50;26.25;;;;;8.26;66.78;103166.69;5081884;28;45460;-63
2021/12/18 06:11:16;;;;;;;;;27.00;20.75;;;;;8.26;66.63;103162.25;5081324;28;45220;-63
2021/12/18 06:13:43;;;;;;;;;30.25;28.75;;;;;8.28;66.57;103160.50;5081658;28;46071;-63
2021/12/18 06:16:09;;;;;;;;;23.00;19.50;;;;;8.31;66.68;103167.66;5078129;28;45692;-63
2021/12/18 06:18:40;;;;;;;;;24.50;22.00;;;;;8.33;66.30;103169.47;5080091;27;45492;-63
2021/12/18 06:21:05;;;;;;;;;21.25;18.75;;;;;8.35;66.25;103166.81;5079382;28;45230;-63
2021/12/18 06:23:31;;;;;;;;;30.00;24.75;;;;;8.37;66.76;103150.88;5081091;28;46010;-63
2021/12/18 06:25:57;;;;;;;;;30.00;24.00;;;;;8.39;66.43;103154.50;5081095;28;45335;-63
2021/12/18 06:28:22;;;;;;;;;24.75;23.25;;;;;8.45;66.14;103154.59;5081466;28;45331;-63
2021/12/18 06:30:49;;;;;;;;;21.00;19.25;;;;;8.44;66.35;103153.72;5081326;28;45415;-63
2021/12/18 06:33:14;;;;;;;;;27.75;24.50;;;;;8.44;66.31;103148.38;5081308;28;47199;-63
2021/12/18 06:35:40;;;;;;;;;32.50;26.25;;;;;8.47;66.10;103155.50;5077817;27;45445;-63
2021/12/18 06:38:05;;;;;;;;;31.00;24.75;;;;;8.47;66.29;103156.44;5081311;28;45552;-63
2021/12/18 06:40:31;;;;;;;;;24.00;20.75;;;;;8.51;65.98;103163.56;5080873;28;45600;-63
2021/12/18 06:42:56;;;;;;;;;27.50;26.00;;;;;8.48;66.05;103160.84;5081159;28;45558;-63
2021/12/18 06:45:21;;;;;;;;;27.00;23.50;;;;;8.47;66.08;103164.41;5080584;28;45291;-63
2021/12/18 06:47:47;;;;;;;;;30.75;27.75;;;;;8.39;65.79;103150.06;5080989;27;45781;-63
2021/12/18 06:50:12;;;;;;;;;31.00;25.75;;;;;8.50;66.49;103167.13;5079226;27;45374;-63
2021/12/18 06:52:37;;;;;;;;;27.75;24.00;;;;;8.51;65.31;103168.91;5079189;28;46133;-63
2021/12/18 06:55:04;;;;;;;;;24.00;19.75;;;;;8.43;66.06;103159.91;5078426;28;45351;-63
2021/12/18 06:57:29;;;;;;;;;22.75;18.25;;;;;8.43;65.93;103170.53;5080243;28;45589;-63
2021/12/18 06:59:55;;;;;;;;;32.00;26.00;;;;;8.40;66.02;103167.78;5080715;28;45186;-63
2021/12/18 07:02:20;;;;;;;;;26.50;23.00;;;;;8.35;66.30;103162.44;5080272;28;45235;-63
2021/12/18 07:04:46;;;;;;;;;23.75;23.75;;;;;8.35;66.15;103167.75;5080827;28;45228;-63
2021/12/18 07:07:12;;;;;;;;;25.75;23.50;;;;;8.41;66.07;103169.59;5079373;27;45389;-63
2021/12/18 07:09:37;;;;;;;;;29.00;25.50;;;;;8.42;65.92;103166.06;5080543;28;45337;-63
2021/12/18 07:12:02;;;;;;;;;29.00;22.00;;;;;8.44;66.03;103168.81;5080433;28;45326;-63
2021/12/18 07:14:28;;;;;;;;;19.00;13.50;;;;;8.43;65.70;103172.31;5077073;28;45378;-63
2021/12/18 07:16:53;;;;;;;;;25.50;23.25;;;;;8.46;66.36;103181.25;5080876;28;45311;-63
2021/12/18 07:19:19;;;;;;;;;27.00;25.25;;;;;8.48;66.15;103170.63;5080482;28;45403;-64
2021/12/18 07:21:44;;;;;;;;;28.25;26.75;;;;;8.59;65.79;103171.69;5080260;28;46017;-73
2021/12/18 07:24:09;;;;;;;;;29.25;28.50;;;;;8.55;66.12;103164.50;5079170;28;45278;-74
2021/12/18 07:26:35;;;;;;;;;25.50;25.50;;;;;8.58;65.62;103171.66;5079744;27;46475;-75
2021/12/18 07:29:00;;;;;;;;;21.50;19.00;;;;;8.57;65.91;103180.50;5080476;28;45448;-74
2021/12/18 07:31:26;;;;;;;;;29.00;26.00;;;;;8.59;65.89;103181.44;5079886;28;46132;-75
2021/12/18 07:33:52;;;;;;;;;27.25;25.00;;;;;8.65;65.96;103169.13;5080428;28;45667;-74
2021/12/18 07:36:18;;;;;;;;;28.00;25.50;;;;;8.64;65.71;103171.75;5080415;28;45375;-75
2021/12/18 07:38:43;;;;;;;;;28.00;25.25;;;;;8.69;65.48;103178.03;5080311;28;45564;-75
2021/12/18 07:41:10;;;;;;;;;27.25;23.75;;;;;8.71;65.49;103184.28;5078205;27;45357;-75
2021/12/18 07:43:36;;;;;;;;;33.50;29.00;;;;;8.82;65.22;103190.66;5075297;28;45648;-74
2021/12/18 07:46:01;;;;;;;;;26.25;22.25;;;;;8.87;65.45;103194.28;5076336;28;45458;-75
2021/12/18 07:48:26;;;;;;;;;26.75;25.75;;;;;8.90;65.26;103190.75;5079187;28;45303;-75
2021/12/18 07:50:52;;;;;;;;;30.75;25.00;;;;;8.89;65.19;103188.97;5080007;28;45158;-75
2021/12/18 07:53:17;;;;;;;;;32.25;26.50;;;;;8.85;64.96;103180.06;5080234;28;45316;-75
2021/12/18 07:55:43;;;;;;;;;31.50;25.00;;;;;8.87;64.99;103185.38;5080038;28;45282;-75
2021/12/18 07:58:08;;;;;;;;;27.50;25.25;;;;;8.89;65.27;103183.66;5074826;28;47072;-75
2021/12/18 08:00:33;;;;;;;;;27.00;26.75;;;;;8.96;64.71;103196.16;5079662;28;45533;-75
2021/12/18 08:02:59;;;;;;;;;26.00;23.50;;;;;8.98;65.08;103190.88;5078674;27;45405;-74
2021/12/18 08:05:24;;;;;;;;;26.00;23.75;;;;;9.00;64.50;103189.09;5076121;27;45728;-63
2021/12/18 08:07:49;;;;;;;;;28.50;24.50;;;;;8.93;64.51;103184.59;5079990;28;45484;-63
2021/12/18 08:10:15;;;;;;;;;25.75;25.00;;;;;8.91;64.69;103187.22;5070602;27;46209;-63
2021/12/18 08:12:41;;;;;;;;;26.00;20.50;;;;;8.93;64.63;103190.78;5069384;27;45444;-63
2021/12/18 08:15:07;;;;;;;;;28.00;26.75;;;;;8.95;64.70;103190.81;5069150;27;47466;-63
2021/12/18 08:17:33;;;;;;;;;24.75;20.75;;;;;8.92;64.73;103190.78;5070032;27;45675;-63
2021/12/18 08:19:58;;;;;;;;;22.25;21.25;;;;;8.86;64.74;103188.94;5068227;27;48669;-63
2021/12/18 08:22:24;;;;;;;;;26.75;24.00;;;;;8.80;64.39;103179.06;5068128;27;45518;-63
2021/12/18 08:24:49;;;;;;;;;24.50;24.50;;;;;8.73;64.53;103185.19;5069347;27;45485;-63
2021/12/18 08:27:15;;;;;;;;;24.50;21.50;;;;;8.72;64.20;103196.72;5077438;27;45406;-64
2021/12/18 08:29:40;;;;;;;;;36.25;30.50;;;;;8.74;64.76;103207.38;5074347;27;45715;-63
2021/12/18 08:32:06;;;;;;;;;28.00;25.00;;;;;8.81;64.62;103203.94;5086402;27;45424;-64
2021/12/18 08:34:32;;;;;;;;;25.75;23.50;;;;;8.84;64.75;103202.22;5072095;27;45418;-64
2021/12/18 08:36:57;;;;;;;;;31.00;26.50;;;;;8.84;64.45;103201.34;5079022;27;46010;-64
2021/12/18 08:39:22;;;;;;;;;26.50;26.50;;;;;8.74;63.65;103200.31;5083258;27;46434;-64
2021/12/18 08:41:48;;;;;;;;;22.50;22.50;;;;;8.74;64.63;103204.72;5078942;27;45410;-63
2021/12/18 08:44:14;;;;;;;;;24.75;24.75;;;;;8.59;64.44;103189.44;5079349;28;45281;-64
2021/12/18 08:46:40;;;;;;;;;27.00;21.50;;;;;8.67;64.77;103203.72;5079236;28;45366;-64
2021/12/18 08:49:06;;;;;;;;;32.25;23.75;;;;;8.61;64.18;103207.22;5078369;28;45465;-64
2021/12/18 08:51:32;;;;;;;;;13.75;12.75;;;;;8.57;64.51;103201.81;5086459;27;45252;-63
2021/12/18 08:53:57;;;;;;;;;24.00;21.75;;;;;8.48;64.52;103206.13;5077596;27;45350;-64
2021/12/18 08:56:23;;;;;;;;;24.75;21.50;;;;;8.45;64.55;103203.44;5077160;27;46083;-65
2021/12/18 08:58:50;;;;;;;;;20.50;16.75;;;;;8.49;65.05;103213.25;5075796;28;45954;-64
2021/12/18 09:01:16;;;;;;;;;34.50;24.25;;;;;8.51;64.81;103203.50;5083112;28;45255;-65
2021/12/18 09:03:41;;;;;;;;;24.00;19.00;;;;;8.51;64.57;103194.63;5082954;28;45251;-65
2021/12/18 09:06:06;;;;;;;;;26.75;21.75;;;;;8.53;64.64;103193.75;5081022;27;45400;-65
2021/12/18 09:08:32;;;;;;;;;31.50;25.25;;;;;8.53;64.97;103191.09;5064679;28;45331;-65
2021/12/18 09:10:57;;;;;;;;;24.25;22.25;;;;;8.60;65.14;103202.75;5081885;27;45724;-65
2021/12/18 09:13:23;;;;;;;;;26.50;25.50;;;;;8.59;64.62;103198.31;5070861;28;45486;-64
2021/12/18 09:15:48;;;;;;;;;25.50;23.75;;;;;8.62;64.75;103194.78;5070587;28;47108;-63
2021/12/18 09:18:13;;;;;;;;;26.25;24.50;;;;;8.68;64.85;103197.53;5070338;28;45495;-64
2021/12/18 09:20:41;;;;;;;;;30.75;27.25;;;;;8.68;64.68;103201.09;5074543;28;45480;-64
2021/12/18 09:23:07;;;;;;;;;27.00;21.00;;;;;8.62;64.33;103184.13;5073190;28;45291;-64
2021/12/18 09:25:32;;;;;;;;;23.00;22.50;;;;;8.60;64.70;103191.22;5084611;27;45480;-65
2021/12/18 09:27:59;;;;;;;;;31.25;27.25;;;;;8.64;64.55;103190.41;5085956;27;46131;-65
2021/12/18 09:30:24;;;;;;;;;26.25;25.50;;;;;8.68;64.56;103177.13;5088749;27;45552;-65
2021/12/18 09:32:51;;;;;;;;;29.25;25.00;;;;;8.64;64.06;103172.66;5089648;27;45442;-65
2021/12/18 09:35:16;;;;;;;;;25.75;21.75;;;;;8.69;64.99;103175.38;5090623;27;45512;-65
2021/12/18 09:37:42;;;;;;;;;25.50;25.50;;;;;8.71;64.51;103184.28;5089785;27;45721;-65
2021/12/18 09:40:09;;;;;;;;;31.50;26.25;;;;;8.64;64.15;103174.41;5090807;27;45443;-65
2021/12/18 09:42:36;;;;;;;;;26.25;23.00;;;;;8.58;64.11;103175.22;5087588;27;45842;-65
2021/12/18 09:45:03;;;;;;;;;30.25;26.00;;;;;8.61;64.00;103177.91;5074222;27;45484;-64
2021/12/18 09:47:29;;;;;;;;;28.75;24.75;;;;;8.61;64.32;103180.59;5080585;28;46390;-65
2021/12/18 09:49:56;;;;;;;;;28.25;23.50;;;;;8.61;63.84;103179.69;5080494;27;45664;-64
2021/12/18 09:52:22;;;;;;;;;34.25;24.75;;;;;8.55;64.18;103175.16;5080649;28;45403;-64
2021/12/18 09:54:47;;;;;;;;;30.25;27.50;;;;;8.56;64.51;103176.97;5082099;27;45417;-64
2021/12/18 09:57:13;;;;;;;;;21.25;20.75;;;;;8.56;64.58;103168.09;5080733;28;45347;-64
2021/12/18 09:59:39;;;;;;;;;25.00;24.25;;;;;8.59;64.49;103173.47;5080485;28;45430;-64
2021/12/18 10:02:04;;;;;;;;;25.25;21.75;;;;;8.68;64.55;103173.56;5080779;28;45348;-64
2021/12/18 10:04:34;;;;;;;;;25.25;20.25;;;;;8.74;64.50;103162.09;5061855;28;45422;-64
2021/12/18 10:07:13;;;;;;;;;27.50;23.25;;;;;8.83;64.17;103162.25;5080566;28;46154;-64
2021/12/18 10:09:38;;;;;;;;;24.25;23.75;;;;;8.83;63.90;103157.81;5079495;28;45402;-64
2021/12/18 10:12:13;;;;;;;;;24.25;21.50;;;;;8.88;63.83;103166.75;5088116;27;45918;-64
2021/12/18 10:14:45;;;;;;;;;24.00;21.75;;;;;8.91;63.89;103160.59;5084560;27;45558;-64
2021/12/18 10:17:31;;;;;;;;;24.50;21.25;;;;;8.97;63.48;103162.41;5085408;27;45647;-64
2021/12/18 10:20:23;;;;;;;;;30.75;27.50;;;;;9.00;63.75;103160.69;5088325;27;45518;-64
2021/12/18 10:22:54;;;;;;;;;24.00;22.00;;;;;9.07;63.64;103167.00;5089910;27;45509;-64
2021/12/18 10:25:26;;;;;;;;;29.75;29.50;;;;;9.15;63.90;103156.44;5088963;27;45728;-64
2021/12/18 10:28:09;;;;;;;;;34.00;32.00;;;;;9.17;63.59;103149.34;5087398;27;46618;-64
2021/12/18 10:30:35;;;;;;;;;23.00;21.75;;;;;9.24;63.69;103162.78;5055557;27;45717;-65
2021/12/18 10:33:10;;;;;;;;;23.25;20.75;;;;;9.28;63.48;103156.59;5085415;27;45444;-65
2021/12/18 10:35:41;;;;;;;;;27.75;24.50;;;;;9.26;63.23;103145.03;5084330;27;45434;-64
2021/12/18 10:38:07;;;;;;;;;24.25;23.25;;;;;9.34;63.55;103160.19;5079622;27;46498;-64
2021/12/18 10:40:44;;;;;;;;;32.75;27.75;;;;;9.32;63.42;103138.91;5089115;27;45364;-65
2021/12/18 10:43:10;;;;;;;;;28.00;25.25;;;;;9.46;63.25;103150.59;5085928;27;45397;-65
2021/12/18 10:45:36;;;;;;;;;26.50;22.00;;;;;9.48;63.34;103134.59;5081556;28;45173;-65
2021/12/18 10:48:05;;;;;;;;;22.00;19.00;;;;;9.55;62.82;103140.91;5084335;27;45541;-65
2021/12/18 10:50:35;;;;;;;;;25.50;21.75;;;;;9.59;62.69;103140.06;5080431;28;45398;-65
2021/12/18 10:53:27;;;;;;;;;24.50;24.50;;;;;9.58;62.53;103144.47;5075894;27;47291;-64
2021/12/18 10:56:01;;;;;;;;;26.75;25.00;;;;;9.59;63.05;103146.28;5056860;28;45405;-66
2021/12/18 10:58:31;;;;;;;;;21.50;21.25;;;;;9.60;62.36;103140.03;5078684;27;46306;-66
2021/12/18 11:01:01;;;;;;;;;27.25;22.00;;;;;9.64;62.58;103135.66;5084830;27;45422;-66
2021/12/18 11:03:38;;;;;;;;;23.00;21.25;;;;;9.67;62.36;103132.13;5085584;27;45482;-66
2021/12/18 11:06:17;;;;;;;;;27.75;24.25;;;;;9.72;62.36;103128.63;5088696;27;45806;-65
2021/12/18 11:09:12;;;;;;;;;22.75;22.00;;;;;9.75;62.50;103127.75;5080650;27;46016;-65
2021/12/18 11:14:19;;;;;;;;;18.75;17.00;;;;;9.75;62.29;103125.97;5082218;27;45362;-65
2021/12/18 11:16:48;;;;;;;;;24.75;23.75;;;;;9.76;61.83;103111.78;5091578;27;45268;-65
2021/12/18 11:19:16;;;;;;;;;25.25;22.50;;;;;9.81;61.99;103115.38;5089037;27;45438;-65
2021/12/18 11:21:47;;;;;;;;;20.25;19.50;;;;;9.87;62.20;103118.97;5083916;27;45695;-65
2021/12/18 11:24:13;;;;;;;;;23.25;22.75;;;;;9.91;61.82;103129.69;5087429;27;45260;-65
2021/12/18 11:26:59;;;;;;;;;25.75;23.25;;;;;9.92;61.58;103125.22;5086819;27;45449;-65
2021/12/18 11:29:34;;;;;;;;;24.25;21.25;;;;;9.95;61.94;103131.47;5079753;27;51050;-65
2021/12/18 11:32:00;;;;;;;;;26.75;24.00;;;;;9.98;61.56;103122.63;5089504;27;45617;-65
2021/12/18 11:34:26;;;;;;;;;27.25;23.50;;;;;10.01;61.47;103128.00;5090021;27;45468;-65
2021/12/18 11:36:52;;;;;;;;;24.50;23.00;;;;;10.04;61.79;103117.34;5088191;27;46861;-65
2021/12/18 11:39:22;;;;;;;;;23.25;22.75;;;;;10.10;61.65;103114.69;5084505;27;46407;-65
2021/12/18 11:41:51;;;;;;;;;23.75;21.75;;;;;10.10;60.74;103108.47;5086091;27;45500;-66
2021/12/18 11:44:39;;;;;;;;;22.25;20.75;;;;;10.07;60.83;103098.66;5085109;27;45385;-66
2021/12/18 11:47:31;;;;;;;;;16.75;15.50;;;;;10.08;61.23;103099.56;5087860;27;45411;-66
2021/12/18 11:50:16;;;;;;;;;23.25;18.25;;;;;10.00;61.40;103089.72;5075238;27;45521;-65
2021/12/18 11:53:00;;;;;;;;;21.75;16.75;;;;;10.09;60.71;103096.94;5088966;27;45753;-65
2021/12/18 11:55:31;;;;;;;;;20.50;20.50;;;;;10.11;61.45;103097.81;5085207;27;45515;-65
2021/12/18 11:58:00;;;;;;;;;22.00;18.00;;;;;10.09;60.91;103086.25;5089474;27;45413;-65
2021/12/18 12:00:36;;;;;;;;;27.25;22.25;;;;;10.16;61.19;103093.41;5069471;27;46076;-66
2021/12/18 12:03:04;;;;;;;;;23.50;22.75;;;;;10.19;61.37;103080.09;5066506;28;45509;-66
2021/12/18 12:05:37;;;;;;;;;22.00;19.25;;;;;10.28;60.81;103084.59;5089501;27;45472;-65
2021/12/18 12:08:35;;;;;;;;;23.00;21.75;;;;;10.34;60.85;103083.75;5084629;27;45443;-65
2021/12/18 12:11:06;;;;;;;;;21.25;18.75;;;;;10.37;60.83;103079.34;5083113;27;46076;-65
2021/12/18 12:14:21;;;;;;;;;20.75;18.00;;;;;10.44;61.00;103074.03;5080629;27;45858;-65